createdAt,value
2019-02-20T00:02:11.034Z,13.70
2019-02-20T00:04:40.538Z,14.53
2019-02-20T00:07:09.928Z,14.00
2019-02-20T00:09:39.264Z,11.87
2019-02-20T00:12:07.944Z,11.20
2019-02-20T00:14:37.021Z,13.20
2019-02-20T00:17:05.340Z,13.00
2019-02-20T00:19:35.359Z,12.20
2019-02-20T00:22:03.812Z,10.93
2019-02-20T00:24:32.595Z,12.90
2019-02-20T00:27:00.775Z,14.20
2019-02-20T00:29:29.118Z,15.17
2019-02-20T00:31:57.249Z,11.90
2019-02-20T00:34:25.380Z,10.13
2019-02-20T00:36:54.111Z,13.27
2019-02-20T00:39:22.699Z,14.30
2019-02-20T00:41:51.111Z,12.50
2019-02-20T00:44:51.129Z,11.17
2019-02-20T00:47:37.057Z,15.87
2019-02-20T00:50:06.905Z,12.30
2019-02-20T00:52:49.408Z,14.90
2019-02-20T00:55:12.819Z,16.40
2019-02-20T00:57:43.735Z,13.63
2019-02-20T01:00:15.292Z,13.57
2019-02-20T01:02:45.594Z,14.00
2019-02-20T01:05:16.567Z,12.77
2019-02-20T01:07:47.289Z,14.97
2019-02-20T01:10:16.527Z,13.60
2019-02-20T01:12:46.497Z,13.37
2019-02-20T01:15:14.811Z,14.83
2019-02-20T01:17:43.355Z,10.60
2019-02-20T01:20:11.888Z,15.70
2019-02-20T01:22:42.468Z,13.80
2019-02-20T01:25:13.002Z,12.07
2019-02-20T01:27:42.955Z,13.57
2019-02-20T01:30:12.224Z,15.93
2019-02-20T01:32:40.998Z,13.57
2019-02-20T01:35:09.319Z,15.73
2019-02-20T01:37:37.412Z,12.47
2019-02-20T01:40:05.714Z,14.80
2019-02-20T01:42:35.034Z,16.00
2019-02-20T01:45:04.623Z,13.03
2019-02-20T01:47:33.389Z,14.47
2019-02-20T01:50:02.366Z,17.60
2019-02-20T01:52:31.076Z,16.40
2019-02-20T01:55:01.079Z,15.07
2019-02-20T01:57:31.537Z,12.53
2019-02-20T02:00:00.397Z,13.47
2019-02-20T02:02:29.482Z,14.27
2019-02-20T02:04:58.599Z,15.97
2019-02-20T02:07:27.986Z,13.10
2019-02-20T02:09:56.958Z,12.10
2019-02-20T02:12:26.471Z,13.27
2019-02-20T02:14:55.784Z,15.10
2019-02-20T02:17:25.391Z,15.37
2019-02-20T02:19:54.549Z,16.33
2019-02-20T02:22:23.896Z,13.40
2019-02-20T02:24:52.409Z,15.20
2019-02-20T02:27:21.887Z,14.03
2019-02-20T02:29:51.721Z,15.67
2019-02-20T02:32:19.848Z,15.10
2019-02-20T02:34:48.212Z,14.47
2019-02-20T02:37:16.262Z,13.17
2019-02-20T02:39:45.380Z,16.07
2019-02-20T02:42:14.050Z,13.50
2019-02-20T02:44:43.468Z,15.33
2019-02-20T02:47:12.218Z,12.97
2019-02-20T02:49:40.774Z,14.27
2019-02-20T02:52:10.338Z,17.07
2019-02-20T02:54:38.676Z,15.03
2019-02-20T02:57:25.525Z,15.83
2019-02-20T02:59:54.726Z,14.90
2019-02-20T03:02:23.811Z,13.57
2019-02-20T03:04:52.815Z,12.80
2019-02-20T03:07:21.518Z,14.37
2019-02-20T03:09:50.381Z,12.57
2019-02-20T03:12:18.850Z,12.17
2019-02-20T03:14:48.316Z,12.20
2019-02-20T03:17:18.051Z,15.93
2019-02-20T03:19:47.702Z,16.20
2019-02-20T03:22:17.102Z,15.33
2019-02-20T03:24:45.346Z,14.67
2019-02-20T03:27:14.880Z,15.03
2019-02-20T03:29:44.270Z,15.80
2019-02-20T03:32:12.662Z,14.27
2019-02-20T03:34:41.411Z,13.70
2019-02-20T03:37:12.013Z,15.03
2019-02-20T03:39:40.554Z,14.23
2019-02-20T03:42:09.752Z,15.73
2019-02-20T03:44:38.084Z,13.63
2019-02-20T03:47:06.147Z,15.80
2019-02-20T03:49:34.431Z,14.17
2019-02-20T03:52:03.672Z,16.83
2019-02-20T03:54:32.319Z,15.07
2019-02-20T03:57:01.653Z,20.70
2019-02-20T03:59:29.778Z,16.23
2019-02-20T04:01:59.824Z,13.33
2019-02-20T04:04:29.317Z,16.03
2019-02-20T04:06:57.823Z,13.57
2019-02-20T04:09:26.744Z,16.43
2019-02-20T04:11:55.287Z,17.47
2019-02-20T04:14:24.051Z,13.63
2019-02-20T04:16:52.264Z,16.27
2019-02-20T04:19:20.495Z,12.97
2019-02-20T04:21:48.905Z,16.37
2019-02-20T04:24:18.057Z,16.00
2019-02-20T04:26:47.595Z,14.87
2019-02-20T04:29:16.885Z,17.27
2019-02-20T04:31:45.943Z,17.57
2019-02-20T04:34:15.637Z,16.50
2019-02-20T04:36:44.808Z,15.37
2019-02-20T04:39:12.981Z,17.20
2019-02-20T04:41:41.515Z,16.70
2019-02-20T04:44:09.421Z,15.37
2019-02-20T04:46:37.778Z,17.07
2019-02-20T04:49:07.159Z,16.13
2019-02-20T04:51:35.931Z,15.80
2019-02-20T04:54:12.952Z,15.47
2019-02-20T04:56:36.918Z,15.23
2019-02-20T04:59:05.574Z,15.47
2019-02-20T05:01:33.871Z,16.67
2019-02-20T05:04:02.668Z,14.53
2019-02-20T05:06:31.428Z,15.23
2019-02-20T05:09:00.137Z,17.23
2019-02-20T05:11:28.505Z,17.37
2019-02-20T05:13:56.570Z,14.70
2019-02-20T05:16:24.906Z,16.57
2019-02-20T05:18:52.974Z,14.30
2019-02-20T05:21:21.889Z,14.43
2019-02-20T05:23:50.756Z,17.87
2019-02-20T05:26:18.829Z,16.20
2019-02-20T05:28:48.078Z,18.93
2019-02-20T05:31:16.968Z,20.10
2019-02-20T05:33:46.514Z,17.57
2019-02-20T05:36:15.251Z,15.67
2019-02-20T05:38:44.110Z,18.57
2019-02-20T05:41:12.901Z,16.20
2019-02-20T05:43:41.161Z,16.07
2019-02-20T05:46:09.444Z,16.13
2019-02-20T05:48:38.350Z,14.73
2019-02-20T05:51:07.072Z,17.50
2019-02-20T05:53:35.076Z,14.03
2019-02-20T05:56:03.556Z,16.13
2019-02-20T05:58:32.244Z,17.13
2019-02-20T06:01:00.268Z,14.57
2019-02-20T06:03:29.355Z,15.90
2019-02-20T06:05:57.810Z,16.73
2019-02-20T06:08:26.675Z,15.70
2019-02-20T06:10:55.663Z,20.77
2019-02-20T06:13:24.974Z,16.77
2019-02-20T06:15:53.221Z,16.57
2019-02-20T06:18:21.672Z,17.93
2019-02-20T06:20:49.633Z,19.03
2019-02-20T06:23:18.511Z,17.37
2019-02-20T06:25:47.103Z,17.23
2019-02-20T06:28:16.374Z,15.93
2019-02-20T06:30:44.737Z,21.10
2019-02-20T06:33:13.820Z,19.20
2019-02-20T06:35:42.660Z,21.13
2019-02-20T06:38:11.649Z,19.57
2019-02-20T06:40:39.814Z,22.87
2019-02-20T06:43:08.259Z,22.67
2019-02-20T06:45:37.247Z,23.83
2019-02-20T06:48:05.612Z,24.43
2019-02-20T06:50:34.383Z,23.90
2019-02-20T06:53:03.776Z,22.90
2019-02-20T06:55:32.492Z,24.33
2019-02-20T06:58:00.551Z,22.20
2019-02-20T07:00:29.211Z,21.63
2019-02-20T07:02:58.428Z,19.60
2019-02-20T07:05:38.526Z,20.33
2019-02-20T07:09:28.312Z,19.00
2019-02-20T07:12:37.904Z,20.33
2019-02-20T07:16:14.207Z,19.40
2019-02-20T07:19:20.265Z,21.27
2019-02-20T07:22:49.696Z,18.40
2019-02-20T07:26:19.373Z,17.73
2019-02-20T07:29:40.074Z,16.80
2019-02-20T07:32:09.045Z,19.73
2019-02-20T07:34:37.850Z,21.27
2019-02-20T07:37:06.171Z,21.20
2019-02-20T07:39:34.907Z,18.77
2019-02-20T07:42:04.018Z,19.33
2019-02-20T07:44:33.326Z,18.13
2019-02-20T07:47:02.410Z,16.93
2019-02-20T07:49:31.486Z,15.30
2019-02-20T07:52:00.160Z,18.10
2019-02-20T07:54:29.705Z,18.67
2019-02-20T07:56:58.998Z,15.07
2019-02-20T07:59:28.142Z,16.07
2019-02-20T08:01:56.995Z,16.40
2019-02-20T08:04:25.839Z,15.03
2019-02-20T08:06:54.353Z,15.50
2019-02-20T08:09:23.003Z,15.33
2019-02-20T08:11:51.598Z,15.63
2019-02-20T08:14:20.257Z,18.83
2019-02-20T08:16:52.314Z,17.10
2019-02-20T08:19:21.935Z,18.00
2019-02-20T08:21:51.058Z,14.23
2019-02-20T08:24:21.580Z,17.73
2019-02-20T08:26:50.873Z,17.60
2019-02-20T08:29:18.882Z,18.60
2019-02-20T08:31:46.934Z,17.93
2019-02-20T08:34:15.046Z,17.17
2019-02-20T08:36:43.439Z,17.70
2019-02-20T08:39:11.534Z,26.73
2019-02-20T08:41:40.831Z,20.87
2019-02-20T08:44:09.937Z,20.07
2019-02-20T08:46:38.403Z,21.53
2019-02-20T08:49:07.382Z,19.33
2019-02-20T08:51:36.356Z,20.70
2019-02-20T08:54:04.750Z,17.33
2019-02-20T08:56:34.199Z,20.13
2019-02-20T08:59:03.033Z,20.70
2019-02-20T09:01:32.178Z,18.60
2019-02-20T09:04:00.113Z,18.53
2019-02-20T09:06:28.485Z,20.67
2019-02-20T09:08:56.516Z,24.77
2019-02-20T09:11:25.734Z,22.23
2019-02-20T09:13:55.648Z,20.40
2019-02-20T09:16:25.258Z,24.47
2019-02-20T09:18:54.617Z,21.43
2019-02-20T09:21:23.450Z,23.70
2019-02-20T09:23:56.946Z,25.57
2019-02-20T09:26:25.846Z,24.17
2019-02-20T09:28:56.664Z,22.50
2019-02-20T09:31:24.818Z,22.60
2019-02-20T09:33:52.917Z,27.00
2019-02-20T09:36:22.520Z,20.47
2019-02-20T09:38:52.323Z,25.63
2019-02-20T09:41:20.728Z,23.47
2019-02-20T09:43:49.391Z,22.57
2019-02-20T09:46:18.893Z,23.53
2019-02-20T09:48:48.088Z,20.37
2019-02-20T09:51:17.519Z,21.03
2019-02-20T09:53:46.457Z,20.13
2019-02-20T09:56:16.216Z,21.27
2019-02-20T09:58:44.346Z,22.93
2019-02-20T10:01:12.615Z,21.97
2019-02-20T10:03:40.756Z,19.27
2019-02-20T10:06:08.828Z,17.90
2019-02-20T10:08:38.789Z,20.57
2019-02-20T10:11:06.859Z,21.07
2019-02-20T10:13:38.802Z,19.03
2019-02-20T10:16:07.438Z,24.30
2019-02-20T10:18:35.736Z,21.43
2019-02-20T10:21:04.281Z,22.83
2019-02-20T10:23:32.498Z,20.67
2019-02-20T10:26:01.267Z,22.07
2019-02-20T10:28:29.540Z,17.37
2019-02-20T10:30:57.490Z,23.50
2019-02-20T10:33:27.327Z,25.83
2019-02-20T10:35:55.634Z,18.17
2019-02-20T10:38:24.312Z,18.70
2019-02-20T10:40:52.531Z,18.93
2019-02-20T10:43:21.355Z,21.07
2019-02-20T10:45:49.934Z,17.80
2019-02-20T10:48:18.824Z,16.47
2019-02-20T10:50:47.424Z,14.80
2019-02-20T10:53:15.426Z,16.90
2019-02-20T10:55:43.669Z,12.93
2019-02-20T10:58:13.379Z,15.93
2019-02-20T11:00:41.704Z,17.00
2019-02-20T11:03:09.801Z,15.30
2019-02-20T11:05:38.410Z,15.63
2019-02-20T11:08:07.398Z,16.83
2019-02-20T11:10:36.505Z,16.00
2019-02-20T11:13:05.851Z,17.00
2019-02-20T11:15:34.083Z,18.77
2019-02-20T11:18:03.257Z,13.17
2019-02-20T11:20:33.173Z,11.53
2019-02-20T11:23:01.554Z,10.23
2019-02-20T11:25:31.278Z,12.40
2019-02-20T11:27:59.458Z,9.70
2019-02-20T11:30:28.034Z,12.57
2019-02-20T11:32:57.420Z,7.83
2019-02-20T11:35:26.399Z,6.87
2019-02-20T11:37:54.527Z,8.40
2019-02-20T11:40:23.139Z,7.80
2019-02-20T11:42:51.416Z,7.37
2019-02-20T11:45:19.515Z,6.80
2019-02-20T11:47:47.619Z,6.13
2019-02-20T11:50:16.068Z,7.50
2019-02-20T11:52:44.313Z,6.50
2019-02-20T11:55:12.939Z,7.73
2019-02-20T11:57:41.555Z,7.40
2019-02-20T12:00:11.408Z,6.17
2019-02-20T12:02:42.229Z,6.10
2019-02-20T12:05:11.384Z,7.73
2019-02-20T12:07:40.444Z,7.60
2019-02-20T12:10:08.833Z,8.37
2019-02-20T12:12:39.344Z,8.80
2019-02-20T12:15:07.760Z,9.70
2019-02-20T12:17:36.125Z,9.93
2019-02-20T12:20:05.199Z,7.47
2019-02-20T12:22:36.697Z,11.77
2019-02-20T12:25:05.304Z,8.20
2019-02-20T12:27:34.807Z,10.67
2019-02-20T12:30:04.055Z,9.03
2019-02-20T12:32:32.270Z,8.73
2019-02-20T12:35:00.435Z,8.53
2019-02-20T12:37:29.147Z,7.47
2019-02-20T12:39:58.491Z,9.53
2019-02-20T12:42:27.564Z,9.27
2019-02-20T12:44:56.084Z,15.77
2019-02-20T12:47:25.534Z,9.93
2019-02-20T12:49:54.543Z,10.17
2019-02-20T12:52:23.383Z,8.37
2019-02-20T12:54:52.852Z,7.70
2019-02-20T12:57:21.276Z,10.70
2019-02-20T12:59:49.985Z,24.57
2019-02-20T13:02:18.932Z,22.10
2019-02-20T13:04:47.948Z,9.27
2019-02-20T13:07:18.389Z,10.23
2019-02-20T13:09:50.089Z,8.10
2019-02-20T13:12:19.094Z,7.97
2019-02-20T13:14:47.437Z,10.17
2019-02-20T13:17:15.906Z,8.40
2019-02-20T13:19:44.938Z,8.23
2019-02-20T13:22:14.453Z,9.33
2019-02-20T13:24:44.469Z,10.67
2019-02-20T13:27:22.313Z,10.03
2019-02-20T13:29:46.406Z,9.30
2019-02-20T13:32:16.116Z,10.10
2019-02-20T13:34:44.566Z,10.43
2019-02-20T13:37:12.663Z,10.00
2019-02-20T13:39:41.395Z,8.93
2019-02-20T13:42:10.337Z,10.03
2019-02-20T13:44:39.644Z,9.67
2019-02-20T13:47:07.831Z,9.90
2019-02-20T13:49:35.867Z,9.97
2019-02-20T13:52:04.035Z,11.37
2019-02-20T13:54:32.399Z,9.43
2019-02-20T13:57:02.342Z,8.97
2019-02-20T13:59:31.757Z,9.40
2019-02-20T14:01:59.795Z,18.90
2019-02-20T14:04:28.872Z,10.07
2019-02-20T14:06:57.580Z,12.13
2019-02-20T14:09:27.177Z,12.67
2019-02-20T14:11:56.205Z,8.57
2019-02-20T14:14:24.477Z,9.30
2019-02-20T14:16:52.945Z,9.20
2019-02-20T14:19:21.909Z,9.50
2019-02-20T14:21:51.485Z,9.30
2019-02-20T14:24:20.202Z,8.73
2019-02-20T14:26:52.713Z,10.03
2019-02-20T14:29:24.419Z,11.97
2019-02-20T14:31:53.851Z,11.03
2019-02-20T14:34:22.850Z,8.97
2019-02-20T14:36:51.659Z,12.83
2019-02-20T14:39:20.941Z,8.37
2019-02-20T14:41:48.917Z,9.93
2019-02-20T14:44:17.823Z,13.37
2019-02-20T14:46:46.483Z,10.20
2019-02-20T14:49:16.183Z,10.47
2019-02-20T14:51:44.408Z,9.00
2019-02-20T14:54:12.866Z,13.53
2019-02-20T14:56:41.432Z,10.90
2019-02-20T14:59:10.308Z,11.23
2019-02-20T15:01:39.113Z,10.57
2019-02-20T15:04:09.822Z,11.13
2019-02-20T15:06:38.589Z,7.70
2019-02-20T15:09:07.056Z,8.77
2019-02-20T15:11:36.181Z,11.13
2019-02-20T15:14:05.482Z,10.47
2019-02-20T15:16:33.901Z,8.97
2019-02-20T15:19:02.443Z,8.10
2019-02-20T15:21:32.664Z,10.20
2019-02-20T15:24:03.630Z,19.70
2019-02-20T15:26:32.266Z,8.77
2019-02-20T15:29:00.999Z,8.03
2019-02-20T15:31:33.789Z,8.07
2019-02-20T15:34:00.194Z,8.60
2019-02-20T15:36:28.348Z,9.90
2019-02-20T15:38:56.519Z,8.50
2019-02-20T15:41:24.607Z,9.23
2019-02-20T15:43:53.034Z,10.40
2019-02-20T15:46:22.008Z,7.33
2019-02-20T15:48:51.055Z,10.07
2019-02-20T15:51:19.848Z,18.87
2019-02-20T15:53:48.592Z,15.17
2019-02-20T15:56:17.688Z,15.10
2019-02-20T15:58:46.044Z,11.07
2019-02-20T16:01:14.448Z,9.87
2019-02-20T16:03:43.682Z,23.00
2019-02-20T16:06:12.958Z,14.63
2019-02-20T16:08:41.363Z,19.33
2019-02-20T16:11:10.222Z,13.77
2019-02-20T16:13:39.833Z,12.47
2019-02-20T16:16:14.357Z,13.50
2019-02-20T16:18:44.109Z,22.10
2019-02-20T16:21:12.537Z,9.67
2019-02-20T16:23:41.322Z,19.23
2019-02-20T16:26:10.162Z,17.03
2019-02-20T16:28:38.986Z,14.23
2019-02-20T16:31:08.214Z,10.60
2019-02-20T16:33:36.547Z,9.10
2019-02-20T16:36:05.572Z,10.77
2019-02-20T16:38:34.029Z,9.13
2019-02-20T16:41:02.135Z,11.73
2019-02-20T16:43:31.041Z,9.48
2019-02-20T16:46:00.224Z,11.17
2019-02-20T16:48:28.345Z,10.97
2019-02-20T16:50:57.772Z,12.10
2019-02-20T16:53:27.210Z,12.10
2019-02-20T16:55:55.914Z,9.43
2019-02-20T16:58:24.506Z,13.77
2019-02-20T17:00:53.555Z,13.37
2019-02-20T17:03:22.187Z,11.73
2019-02-20T17:05:50.163Z,13.00
2019-02-20T17:08:19.344Z,11.67
2019-02-20T17:10:48.133Z,17.97
2019-02-20T17:13:16.510Z,10.77
2019-02-20T17:15:45.625Z,15.67
2019-02-20T17:18:14.588Z,9.77
2019-02-20T17:20:42.673Z,8.80
2019-02-20T17:23:19.034Z,12.47
2019-02-20T17:25:47.539Z,14.30
2019-02-20T17:28:16.328Z,13.00
2019-02-20T17:30:45.785Z,11.73
2019-02-20T17:33:15.832Z,11.90
2019-02-20T17:35:44.617Z,19.07
2019-02-20T17:38:13.872Z,16.97
2019-02-20T17:40:42.510Z,11.83
2019-02-20T17:43:11.433Z,14.87
2019-02-20T17:45:40.123Z,12.23
2019-02-20T17:48:08.444Z,13.60
2019-02-20T17:50:36.734Z,15.13
2019-02-20T17:53:05.142Z,21.93
2019-02-20T17:55:33.337Z,13.30
2019-02-20T17:58:02.081Z,15.53
2019-02-20T18:00:30.883Z,15.00
2019-02-20T18:03:00.239Z,15.87
2019-02-20T18:05:28.663Z,16.90
2019-02-20T18:07:57.714Z,14.27
2019-02-20T18:10:27.967Z,16.87
2019-02-20T18:12:56.650Z,13.87
2019-02-20T18:15:26.880Z,17.20
2019-02-20T18:17:56.045Z,22.07
2019-02-20T18:20:25.213Z,16.67
2019-02-20T18:22:54.007Z,16.40
2019-02-20T18:25:22.364Z,15.20
2019-02-20T18:27:50.513Z,16.33
2019-02-20T18:30:18.950Z,18.23
2019-02-20T18:32:48.158Z,19.77
2019-02-20T18:35:16.599Z,17.63
2019-02-20T18:37:45.222Z,17.87
2019-02-20T18:40:14.034Z,14.43
2019-02-20T18:42:43.032Z,16.63
2019-02-20T18:45:11.403Z,16.37
2019-02-20T18:47:40.250Z,20.20
2019-02-20T18:50:09.687Z,16.93
2019-02-20T18:52:39.154Z,18.80
2019-02-20T18:55:08.618Z,19.93
2019-02-20T18:57:37.949Z,18.40
2019-02-20T19:00:10.425Z,16.90
2019-02-20T19:02:39.487Z,18.33
2019-02-20T19:05:08.810Z,19.67
2019-02-20T19:07:37.232Z,17.37
2019-02-20T19:10:10.935Z,17.83
2019-02-20T19:13:54.295Z,17.43
2019-02-20T19:17:49.147Z,15.20
2019-02-20T19:20:43.698Z,17.23
2019-02-20T19:24:19.480Z,17.17
2019-02-20T19:27:59.537Z,23.83
2019-02-20T19:31:12.256Z,17.30
2019-02-20T19:34:02.803Z,18.80
2019-02-20T19:37:40.050Z,13.13
2019-02-20T19:41:13.800Z,11.67
2019-02-20T19:44:58.841Z,12.83
2019-02-20T19:48:05.705Z,12.60
2019-02-20T19:51:29.583Z,16.60
2019-02-20T19:54:27.436Z,12.30
2019-02-20T19:57:33.058Z,15.53
2019-02-20T20:01:08.528Z,12.40
2019-02-20T20:04:19.467Z,15.63
2019-02-20T20:08:17.265Z,15.20
2019-02-20T20:11:22.940Z,11.77
2019-02-20T20:14:42.174Z,11.57
2019-02-20T20:18:22.104Z,13.50
2019-02-20T20:21:29.258Z,14.10
2019-02-20T20:25:25.579Z,11.80
2019-02-20T20:28:34.025Z,12.20
2019-02-20T20:32:13.361Z,11.97
2019-02-20T20:35:27.440Z,13.80
2019-02-20T20:38:31.170Z,12.67
2019-02-20T20:41:39.680Z,12.60
2019-02-20T20:44:47.127Z,22.23
2019-02-20T20:47:55.067Z,13.40
2019-02-20T20:51:11.010Z,12.87
2019-02-20T20:54:49.967Z,13.33
2019-02-20T20:57:59.430Z,11.03
2019-02-20T21:01:24.194Z,11.23
2019-02-20T21:04:29.741Z,10.23
2019-02-20T21:07:55.911Z,11.80
2019-02-20T21:11:55.033Z,12.93
2019-02-20T21:15:27.880Z,12.50
2019-02-20T21:18:40.805Z,13.07
2019-02-20T21:21:42.579Z,13.23
2019-02-20T21:25:01.391Z,16.73
2019-02-20T21:28:35.145Z,13.10
2019-02-20T21:32:03.752Z,13.80
2019-02-20T21:34:59.853Z,11.57
2019-02-20T21:38:12.632Z,14.73
2019-02-20T21:42:09.566Z,14.57
2019-02-20T21:45:28.755Z,14.20
2019-02-20T21:49:04.267Z,16.87
2019-02-20T21:51:52.928Z,14.03
2019-02-20T21:54:53.184Z,13.90
2019-02-20T21:58:19.503Z,15.60
2019-02-20T22:01:28.810Z,16.37
2019-02-20T22:04:39.396Z,17.70
2019-02-20T22:07:57.005Z,13.07
2019-02-20T22:11:18.391Z,12.07
2019-02-20T22:14:29.591Z,13.37
2019-02-20T22:18:28.178Z,21.93
2019-02-20T22:21:34.745Z,17.83
2019-02-20T22:24:28.525Z,14.53
2019-02-20T22:27:57.608Z,18.30
2019-02-20T22:31:01.882Z,21.10
2019-02-20T22:33:53.568Z,13.97
2019-02-20T22:37:18.468Z,14.07
2019-02-20T22:41:04.183Z,17.03
2019-02-20T22:44:32.695Z,17.50
2019-02-20T22:47:33.795Z,14.57
2019-02-20T22:51:12.256Z,17.53
2019-02-20T22:54:38.615Z,15.47
2019-02-20T22:57:53.986Z,17.57
2019-02-20T23:01:24.286Z,16.70
2019-02-20T23:05:12.737Z,20.40
2019-02-20T23:08:25.745Z,18.37
2019-02-20T23:11:47.257Z,17.83
2019-02-20T23:14:55.420Z,18.03
2019-02-20T23:17:26.854Z,15.30
2019-02-20T23:19:55.495Z,18.07
2019-02-20T23:22:24.992Z,19.20
2019-02-20T23:24:54.179Z,19.10
2019-02-20T23:27:23.190Z,17.43
2019-02-20T23:29:52.402Z,19.43
2019-02-20T23:32:20.436Z,15.97
2019-02-20T23:34:50.309Z,17.80
2019-02-20T23:37:18.952Z,18.23
2019-02-20T23:39:47.527Z,23.27
2019-02-20T23:42:15.582Z,20.60
2019-02-20T23:44:43.865Z,21.33
2019-02-20T23:47:12.697Z,21.43
2019-02-20T23:49:41.893Z,19.37
2019-02-20T23:52:10.028Z,19.47
2019-02-20T23:54:38.927Z,18.33
2019-02-20T23:57:07.223Z,20.23
2019-02-20T23:59:36.389Z,18.83
